sensor_id;sensor_type;location;lat;lon;timestamp;pressure;altitude;pressure_sealevel;temperature;humidity
55189;BME280;41069;52.192;5.398;2023-01-29T00:02:37;102983.16;;;17.01;48.75
55189;BME280;41069;52.192;5.398;2023-01-29T00:05:12;102985.16;;;17.00;48.83
55189;BME280;41069;52.192;5.398;2023-01-29T00:07:47;102969.97;;;16.97;48.78
55189;BME280;41069;52.192;5.398;2023-01-29T00:10:13;102969.53;;;16.95;48.89
55189;BME280;41069;52.192;5.398;2023-01-29T00:12:54;102965.16;;;16.98;48.78
55189;BME280;41069;52.192;5.398;2023-01-29T00:15:26;102961.13;;;16.95;48.82
55189;BME280;41069;52.192;5.398;2023-01-29T00:17:52;102953.13;;;16.94;48.95
55189;BME280;41069;52.192;5.398;2023-01-29T00:20:19;102958.34;;;16.92;48.91
55189;BME280;41069;52.192;5.398;2023-01-29T00:22:45;102949.94;;;16.92;48.96
55189;BME280;41069;52.192;5.398;2023-01-29T00:25:10;102942.34;;;16.92;49.15
55189;BME280;41069;52.192;5.398;2023-01-29T00:27:36;102943.53;;;16.91;49.11
55189;BME280;41069;52.192;5.398;2023-01-29T00:30:02;102944.75;;;16.90;48.92
55189;BME280;41069;52.192;5.398;2023-01-29T00:32:28;102941.53;;;16.88;49.22
55189;BME280;41069;52.192;5.398;2023-01-29T00:34:54;102952.75;;;16.88;49.24
55189;BME280;41069;52.192;5.398;2023-01-29T00:37:20;102951.94;;;16.88;49.14
55189;BME280;41069;52.192;5.398;2023-01-29T00:39:46;102949.53;;;16.90;49.15
55189;BME280;41069;52.192;5.398;2023-01-29T00:42:12;102951.53;;;16.93;48.92
55189;BME280;41069;52.192;5.398;2023-01-29T00:44:43;102956.75;;;16.94;49.23
55189;BME280;41069;52.192;5.398;2023-01-29T00:47:11;102947.53;;;16.94;49.05
55189;BME280;41069;52.192;5.398;2023-01-29T00:49:37;102945.19;;;16.96;48.87
55189;BME280;41069;52.192;5.398;2023-01-29T00:52:03;102943.56;;;16.98;49.02
55189;BME280;41069;52.192;5.398;2023-01-29T00:54:29;102937.19;;;16.98;48.99
55189;BME280;41069;52.192;5.398;2023-01-29T00:56:55;102937.19;;;17.02;48.89
55189;BME280;41069;52.192;5.398;2023-01-29T00:59:21;102937.19;;;17.02;48.98
55189;BME280;41069;52.192;5.398;2023-01-29T01:02:02;102935.97;;;17.03;48.87
55189;BME280;41069;52.192;5.398;2023-01-29T01:04:34;102934.38;;;17.05;48.75
55189;BME280;41069;52.192;5.398;2023-01-29T01:09:51;102927.97;;;17.05;48.83
55189;BME280;41069;52.192;5.398;2023-01-29T01:12:31;102919.59;;;17.01;48.88
55189;BME280;41069;52.192;5.398;2023-01-29T01:14:57;102925.56;;;17.03;48.91
55189;BME280;41069;52.192;5.398;2023-01-29T01:17:28;102918.78;;;17.04;48.81
55189;BME280;41069;52.192;5.398;2023-01-29T01:20:03;102921.19;;;17.06;48.81
55189;BME280;41069;52.192;5.398;2023-01-29T01:22:32;102913.19;;;17.08;48.84
55189;BME280;41069;52.192;5.398;2023-01-29T01:24:58;102922.78;;;17.07;48.78
55189;BME280;41069;52.192;5.398;2023-01-29T01:27:24;102932.41;;;17.09;48.65
55189;BME280;41069;52.192;5.398;2023-01-29T01:29:51;102928.41;;;17.10;48.85
55189;BME280;41069;52.192;5.398;2023-01-29T01:32:21;102930.00;;;17.11;48.62
55189;BME280;41069;52.192;5.398;2023-01-29T01:35:01;102941.59;;;17.10;48.67
55189;BME280;41069;52.192;5.398;2023-01-29T01:37:33;102943.19;;;17.11;48.77
55189;BME280;41069;52.192;5.398;2023-01-29T01:39:59;102930.00;;;17.11;48.63
55189;BME280;41069;52.192;5.398;2023-01-29T01:42:30;102934.41;;;17.12;48.66
55189;BME280;41069;52.192;5.398;2023-01-29T01:47:48;102931.97;;;17.07;48.74
55189;BME280;41069;52.192;5.398;2023-01-29T01:51:21;102933.97;;;17.07;48.75
55189;BME280;41069;52.192;5.398;2023-01-29T01:53:56;102946.78;;;17.08;48.73
55189;BME280;41069;52.192;5.398;2023-01-29T01:56:32;102933.56;;;17.05;48.53
55189;BME280;41069;52.192;5.398;2023-01-29T01:58:58;102944.38;;;17.06;48.94
55189;BME280;41069;52.192;5.398;2023-01-29T02:01:25;102944.78;;;17.05;48.82
55189;BME280;41069;52.192;5.398;2023-01-29T02:04:14;102935.56;;;17.01;48.77
55189;BME280;41069;52.192;5.398;2023-01-29T02:06:42;102935.97;;;16.99;49.00
55189;BME280;41069;52.192;5.398;2023-01-29T02:09:12;102933.16;;;16.95;48.86
55189;BME280;41069;52.192;5.398;2023-01-29T02:11:50;102937.97;;;16.98;48.84
55189;BME280;41069;52.192;5.398;2023-01-29T02:14:16;102937.19;;;16.98;49.01
55189;BME280;41069;52.192;5.398;2023-01-29T02:16:42;102934.78;;;16.96;48.88
55189;BME280;41069;52.192;5.398;2023-01-29T02:19:30;102931.94;;;16.93;49.11
55189;BME280;41069;52.192;5.398;2023-01-29T02:22:11;102936.34;;;16.94;49.08
55189;BME280;41069;52.192;5.398;2023-01-29T02:27:39;102943.16;;;16.89;49.31
55189;BME280;41069;52.192;5.398;2023-01-29T02:30:35;102939.94;;;16.87;49.23
55189;BME280;41069;52.192;5.398;2023-01-29T02:36:02;102951.94;;;16.88;49.22
55189;BME280;41069;52.192;5.398;2023-01-29T02:38:54;102955.53;;;16.85;49.20
55189;BME280;41069;52.192;5.398;2023-01-29T02:41:35;102950.34;;;16.87;49.01
55189;BME280;41069;52.192;5.398;2023-01-29T02:52:47;102956.31;;;16.82;49.00
55189;BME280;41069;52.192;5.398;2023-01-29T02:58:30;102948.31;;;16.77;49.13
55189;BME280;41069;52.192;5.398;2023-01-29T03:01:07;102940.72;;;16.77;49.30
55189;BME280;41069;52.192;5.398;2023-01-29T03:03:39;102951.91;;;16.77;49.28
55189;BME280;41069;52.192;5.398;2023-01-29T03:08:58;102930.72;;;16.76;49.18
55189;BME280;41069;52.192;5.398;2023-01-29T03:11:34;102929.09;;;16.72;49.36
55189;BME280;41069;52.192;5.398;2023-01-29T03:14:23;102928.31;;;16.75;49.11
55189;BME280;41069;52.192;5.398;2023-01-29T03:16:52;102922.31;;;16.76;49.13
55189;BME280;41069;52.192;5.398;2023-01-29T03:19:39;102921.13;;;16.77;49.55
55189;BME280;41069;52.192;5.398;2023-01-29T03:22:06;102914.72;;;16.80;49.17
55189;BME280;41069;52.192;5.398;2023-01-29T03:24:51;102906.72;;;16.82;49.09
55189;BME280;41069;52.192;5.398;2023-01-29T03:27:52;102906.72;;;16.82;49.10
55189;BME280;41069;52.192;5.398;2023-01-29T03:30:21;102907.16;;;16.84;49.21
55189;BME280;41069;52.192;5.398;2023-01-29T03:32:50;102903.16;;;16.89;49.11
55189;BME280;41069;52.192;5.398;2023-01-29T03:35:22;102899.97;;;16.87;49.06
55189;BME280;41069;52.192;5.398;2023-01-29T03:38:12;102895.56;;;16.86;48.97
55189;BME280;41069;52.192;5.398;2023-01-29T03:40:48;102887.19;;;16.86;49.01
55189;BME280;41069;52.192;5.398;2023-01-29T03:43:28;102887.16;;;16.89;49.16
55189;BME280;41069;52.192;5.398;2023-01-29T03:46:24;102879.56;;;16.90;48.96
55189;BME280;41069;52.192;5.398;2023-01-29T03:49:05;102880.38;;;16.87;49.00
55189;BME280;41069;52.192;5.398;2023-01-29T03:51:44;102877.56;;;16.90;48.98
55189;BME280;41069;52.192;5.398;2023-01-29T03:54:20;102882.38;;;16.90;48.91
55189;BME280;41069;52.192;5.398;2023-01-29T04:00:05;102877.56;;;16.94;48.96
55189;BME280;41069;52.192;5.398;2023-01-29T04:02:50;102885.56;;;16.88;49.24
55189;BME280;41069;52.192;5.398;2023-01-29T04:05:27;102874.38;;;16.88;48.95
55189;BME280;41069;52.192;5.398;2023-01-29T04:08:05;102873.56;;;16.91;48.98
55189;BME280;41069;52.192;5.398;2023-01-29T04:10:35;102864.78;;;16.93;48.79
55189;BME280;41069;52.192;5.398;2023-01-29T04:13:06;102855.59;;;16.92;48.89
55189;BME280;41069;52.192;5.398;2023-01-29T04:15:49;102867.56;;;16.93;48.72
55189;BME280;41069;52.192;5.398;2023-01-29T04:18:16;102856.78;;;16.95;48.93
55189;BME280;41069;52.192;5.398;2023-01-29T04:20:42;102858.81;;;16.98;48.80
55189;BME280;41069;52.192;5.398;2023-01-29T04:23:22;102847.22;;;16.96;48.79
55189;BME280;41069;52.192;5.398;2023-01-29T04:28:46;102854.81;;;17.13;48.52
55189;BME280;41069;52.192;5.398;2023-01-29T04:31:17;102855.59;;;17.14;48.48
55189;BME280;41069;52.192;5.398;2023-01-29T04:34:03;102862.38;;;17.20;48.61
55189;BME280;41069;52.192;5.398;2023-01-29T04:36:38;102850.00;;;17.17;48.26
55189;BME280;41069;52.192;5.398;2023-01-29T04:45:26;102853.63;;;17.21;48.52
55189;BME280;41069;52.192;5.398;2023-01-29T04:47:50;102847.22;;;17.21;48.29
55189;BME280;41069;52.192;5.398;2023-01-29T04:50:41;102845.19;;;17.18;48.35
55189;BME280;41069;52.192;5.398;2023-01-29T04:56:32;102830.41;;;17.10;48.56
55189;BME280;41069;52.192;5.398;2023-01-29T04:59:06;102830.81;;;17.12;48.60
55189;BME280;41069;52.192;5.398;2023-01-29T05:01:37;102833.22;;;17.10;48.54
55189;BME280;41069;52.192;5.398;2023-01-29T05:04:08;102824.81;;;17.10;48.45
55189;BME280;41069;52.192;5.398;2023-01-29T05:06:40;102824.41;;;17.08;48.36
55189;BME280;41069;52.192;5.398;2023-01-29T05:09:24;102822.00;;;17.10;48.52
55189;BME280;41069;52.192;5.398;2023-01-29T05:11:50;102827.59;;;17.07;48.54
55189;BME280;41069;52.192;5.398;2023-01-29T05:14:17;102826.78;;;17.06;48.64
55189;BME280;41069;52.192;5.398;2023-01-29T05:16:50;102825.59;;;17.04;48.76
55189;BME280;41069;52.192;5.398;2023-01-29T05:19:17;102822.00;;;17.03;48.70
55189;BME280;41069;52.192;5.398;2023-01-29T05:21:56;102826.81;;;16.99;48.56
55189;BME280;41069;52.192;5.398;2023-01-29T05:24:25;102821.63;;;16.97;48.51
55189;BME280;41069;52.192;5.398;2023-01-29T05:26:54;102838.00;;;16.99;48.68
55189;BME280;41069;52.192;5.398;2023-01-29T05:29:20;102843.59;;;16.99;48.48
55189;BME280;41069;52.192;5.398;2023-01-29T05:31:46;102839.97;;;16.95;48.78
55189;BME280;41069;52.192;5.398;2023-01-29T05:34:15;102838.78;;;16.92;48.95
55189;BME280;41069;52.192;5.398;2023-01-29T05:37:00;102837.59;;;16.93;48.66
55189;BME280;41069;52.192;5.398;2023-01-29T05:40:03;102836.78;;;16.93;48.85
55189;BME280;41069;52.192;5.398;2023-01-29T05:42:31;102836.78;;;16.93;48.76
55189;BME280;41069;52.192;5.398;2023-01-29T05:45:05;102832.78;;;16.90;48.88
55189;BME280;41069;52.192;5.398;2023-01-29T05:47:39;102842.41;;;16.89;48.68
55189;BME280;41069;52.192;5.398;2023-01-29T05:53:04;102826.81;;;16.85;48.90
55189;BME280;41069;52.192;5.398;2023-01-29T05:55:30;102821.59;;;16.90;49.01
55189;BME280;41069;52.192;5.398;2023-01-29T05:57:56;102809.59;;;16.83;49.28
55189;BME280;41069;52.192;5.398;2023-01-29T06:00:22;102810.41;;;16.87;48.93
55189;BME280;41069;52.192;5.398;2023-01-29T06:02:48;102802.78;;;16.84;48.93
55189;BME280;41069;52.192;5.398;2023-01-29T06:05:14;102796.00;;;16.81;49.08
55189;BME280;41069;52.192;5.398;2023-01-29T06:07:41;102800.41;;;16.82;48.99
55189;BME280;41069;52.192;5.398;2023-01-29T06:10:07;102800.81;;;16.81;48.91
55189;BME280;41069;52.192;5.398;2023-01-29T06:12:33;102789.59;;;16.81;49.13
55189;BME280;41069;52.192;5.398;2023-01-29T06:14:59;102794.41;;;16.80;48.79
55189;BME280;41069;52.192;5.398;2023-01-29T06:17:30;102801.19;;;16.83;48.99
55189;BME280;41069;52.192;5.398;2023-01-29T06:19:58;102799.22;;;16.87;48.86
55189;BME280;41069;52.192;5.398;2023-01-29T06:22:35;102788.44;;;16.85;48.78
55189;BME280;41069;52.192;5.398;2023-01-29T06:25:01;102784.84;;;16.85;49.02
55189;BME280;41069;52.192;5.398;2023-01-29T06:27:33;102780.84;;;16.86;48.78
55189;BME280;41069;52.192;5.398;2023-01-29T06:29:59;102774.84;;;16.87;48.65
55189;BME280;41069;52.192;5.398;2023-01-29T06:32:31;102775.63;;;16.88;48.85
55189;BME280;41069;52.192;5.398;2023-01-29T06:34:56;102784.41;;;16.90;48.49
55189;BME280;41069;52.192;5.398;2023-01-29T06:37:26;102779.22;;;16.92;48.74
55189;BME280;41069;52.192;5.398;2023-01-29T06:40:04;102778.81;;;17.01;48.89
55189;BME280;41069;52.192;5.398;2023-01-29T06:42:50;102782.81;;;17.03;49.06
55189;BME280;41069;52.192;5.398;2023-01-29T06:45:16;102782.03;;;17.10;49.14
55189;BME280;41069;52.192;5.398;2023-01-29T06:47:42;102789.22;;;17.14;49.17
55189;BME280;41069;52.192;5.398;2023-01-29T06:50:08;102775.63;;;17.09;49.17
55189;BME280;41069;52.192;5.398;2023-01-29T06:52:34;102779.19;;;17.17;48.92
55189;BME280;41069;52.192;5.398;2023-01-29T06:55:03;102781.22;;;17.13;49.07
55189;BME280;41069;52.192;5.398;2023-01-29T06:57:32;102786.81;;;17.13;49.17
55189;BME280;41069;52.192;5.398;2023-01-29T06:59:58;102779.22;;;17.13;49.19
55189;BME280;41069;52.192;5.398;2023-01-29T07:02:26;102777.22;;;17.14;49.34
55189;BME280;41069;52.192;5.398;2023-01-29T07:04:55;102783.59;;;17.14;49.61
55189;BME280;41069;52.192;5.398;2023-01-29T07:07:23;102776.41;;;17.13;50.08
55189;BME280;41069;52.192;5.398;2023-01-29T07:10:00;102778.41;;;17.16;49.71
55189;BME280;41069;52.192;5.398;2023-01-29T07:12:26;102779.59;;;17.19;49.54
55189;BME280;41069;52.192;5.398;2023-01-29T07:14:52;102778.38;;;17.20;49.56
55189;BME280;41069;52.192;5.398;2023-01-29T07:17:17;102766.41;;;17.16;49.71
55189;BME280;41069;52.192;5.398;2023-01-29T07:19:46;102777.59;;;17.19;49.61
55189;BME280;41069;52.192;5.398;2023-01-29T07:22:15;102772.00;;;17.19;50.40
55189;BME280;41069;52.192;5.398;2023-01-29T07:24:41;102772.81;;;17.13;50.20
55189;BME280;41069;52.192;5.398;2023-01-29T07:27:07;102772.78;;;17.20;50.16
55189;BME280;41069;52.192;5.398;2023-01-29T07:29:33;102786.00;;;17.16;50.44
55189;BME280;41069;52.192;5.398;2023-01-29T07:32:01;102778.38;;;17.20;49.80
55189;BME280;41069;52.192;5.398;2023-01-29T07:34:27;102775.63;;;17.13;50.59
55189;BME280;41069;52.192;5.398;2023-01-29T07:37:04;102772.81;;;17.13;50.63
55189;BME280;41069;52.192;5.398;2023-01-29T07:39:31;102771.22;;;17.15;50.36
55189;BME280;41069;52.192;5.398;2023-01-29T07:41:59;102766.41;;;17.16;50.88
55189;BME280;41069;52.192;5.398;2023-01-29T07:44:25;102764.00;;;17.14;50.78
55189;BME280;41069;52.192;5.398;2023-01-29T07:46:55;102758.81;;;17.16;51.11
55189;BME280;41069;52.192;5.398;2023-01-29T07:49:21;102760.81;;;17.16;51.18
55189;BME280;41069;52.192;5.398;2023-01-29T07:51:47;102752.38;;;17.19;51.27
55189;BME280;41069;52.192;5.398;2023-01-29T07:54:16;102748.41;;;17.20;50.53
55189;BME280;41069;52.192;5.398;2023-01-29T07:56:42;102740.00;;;17.17;50.53
55189;BME280;41069;52.192;5.398;2023-01-29T07:59:08;102742.41;;;17.22;50.81
55189;BME280;41069;52.192;5.398;2023-01-29T08:01:39;102742.00;;;17.16;51.22
55189;BME280;41069;52.192;5.398;2023-01-29T08:04:14;102744.81;;;17.16;51.44
55189;BME280;41069;52.192;5.398;2023-01-29T08:06:45;102737.19;;;17.17;51.37
55189;BME280;41069;52.192;5.398;2023-01-29T08:09:11;102732.81;;;17.16;51.00
55189;BME280;41069;52.192;5.398;2023-01-29T08:11:37;102729.22;;;17.15;50.96
55189;BME280;41069;52.192;5.398;2023-01-29T08:14:03;102731.59;;;17.17;50.56
55189;BME280;41069;52.192;5.398;2023-01-29T08:16:34;102736.03;;;17.11;51.15
55189;BME280;41069;52.192;5.398;2023-01-29T08:19:01;102744.03;;;17.05;51.06
55189;BME280;41069;52.192;5.398;2023-01-29T08:21:27;102742.81;;;17.03;51.17
55189;BME280;41069;52.192;5.398;2023-01-29T08:23:53;102746.84;;;17.02;51.05
55189;BME280;41069;52.192;5.398;2023-01-29T08:26:19;102744.44;;;17.04;51.20
55189;BME280;41069;52.192;5.398;2023-01-29T08:28:44;102730.06;;;16.98;51.34
55189;BME280;41069;52.192;5.398;2023-01-29T08:31:18;102735.63;;;17.05;51.36
55189;BME280;41069;52.192;5.398;2023-01-29T08:33:44;102718.44;;;17.03;51.18
55189;BME280;41069;52.192;5.398;2023-01-29T08:36:12;102713.63;;;17.04;51.34
55189;BME280;41069;52.192;5.398;2023-01-29T08:38:39;102720.44;;;17.03;51.26
55189;BME280;41069;52.192;5.398;2023-01-29T08:41:05;102715.25;;;17.01;51.39
55189;BME280;41069;52.192;5.398;2023-01-29T08:43:37;102707.25;;;16.96;51.33
55189;BME280;41069;52.192;5.398;2023-01-29T08:46:05;102700.03;;;16.95;51.44
55189;BME280;41069;52.192;5.398;2023-01-29T08:48:32;102705.28;;;16.86;51.67
55189;BME280;41069;52.192;5.398;2023-01-29T08:51:03;102710.84;;;17.00;51.44
55189;BME280;41069;52.192;5.398;2023-01-29T08:53:32;102701.25;;;16.97;51.56
55189;BME280;41069;52.192;5.398;2023-01-29T08:55:58;102705.25;;;16.93;51.31
55189;BME280;41069;52.192;5.398;2023-01-29T08:58:27;102695.28;;;16.88;51.65
55189;BME280;41069;52.192;5.398;2023-01-29T09:01:09;102696.44;;;16.94;51.36
55189;BME280;41069;52.192;5.398;2023-01-29T09:03:36;102700.84;;;16.92;51.50
55189;BME280;41069;52.192;5.398;2023-01-29T09:06:02;102700.06;;;16.91;51.70
55189;BME280;41069;52.192;5.398;2023-01-29T09:08:31;102704.84;;;16.94;51.34
55189;BME280;41069;52.192;5.398;2023-01-29T09:10:58;102700.47;;;16.90;51.44
55189;BME280;41069;52.192;5.398;2023-01-29T09:13:24;102696.44;;;16.84;51.04
55189;BME280;41069;52.192;5.398;2023-01-29T09:15:53;102692.47;;;16.78;51.32
55189;BME280;41069;52.192;5.398;2023-01-29T09:18:20;102693.28;;;16.75;51.39
55189;BME280;41069;52.192;5.398;2023-01-29T09:20:47;102700.06;;;16.77;51.33
55189;BME280;41069;52.192;5.398;2023-01-29T09:23:15;102694.06;;;16.79;51.34
55189;BME280;41069;52.192;5.398;2023-01-29T09:25:42;102707.66;;;16.80;51.04
55189;BME280;41069;52.192;5.398;2023-01-29T09:28:21;102705.28;;;16.86;51.09
55189;BME280;41069;52.192;5.398;2023-01-29T09:30:47;102707.66;;;16.87;50.99
55189;BME280;41069;52.192;5.398;2023-01-29T09:33:13;102703.66;;;16.92;50.91
55189;BME280;41069;52.192;5.398;2023-01-29T09:35:41;102705.25;;;16.93;51.15
55189;BME280;41069;52.192;5.398;2023-01-29T09:38:10;102707.25;;;16.96;51.14
55189;BME280;41069;52.192;5.398;2023-01-29T09:43:54;102712.47;;;16.97;50.92
55189;BME280;41069;52.192;5.398;2023-01-29T09:46:27;102707.25;;;16.92;51.08
55189;BME280;41069;52.192;5.398;2023-01-29T09:49:06;102699.66;;;16.96;50.98
55189;BME280;41069;52.192;5.398;2023-01-29T09:51:40;102694.84;;;16.93;50.89
55189;BME280;41069;52.192;5.398;2023-01-29T09:57:16;102698.84;;;16.92;51.12
55189;BME280;41069;52.192;5.398;2023-01-29T09:59:45;102701.66;;;16.92;51.51
55189;BME280;41069;52.192;5.398;2023-01-29T10:02:35;102706.06;;;16.97;51.35
55189;BME280;41069;52.192;5.398;2023-01-29T10:11:52;102697.66;;;17.01;51.26
55189;BME280;41069;52.192;5.398;2023-01-29T10:17:24;102687.69;;;16.96;50.93
55189;BME280;41069;52.192;5.398;2023-01-29T10:25:39;102676.44;;;17.03;51.48
55189;BME280;41069;52.192;5.398;2023-01-29T10:28:32;102677.28;;;16.96;51.46
55189;BME280;41069;52.192;5.398;2023-01-29T10:31:07;102665.28;;;16.96;51.44
55189;BME280;41069;52.192;5.398;2023-01-29T10:33:41;102664.44;;;16.95;51.53
55189;BME280;41069;52.192;5.398;2023-01-29T10:36:16;102646.06;;;16.94;51.64
55189;BME280;41069;52.192;5.398;2023-01-29T10:38:45;102654.84;;;17.04;51.50
55189;BME280;41069;52.192;5.398;2023-01-29T10:47:40;102640.84;;;17.07;51.64
55189;BME280;41069;52.192;5.398;2023-01-29T10:52:58;102635.28;;;16.96;52.12
55189;BME280;41069;52.192;5.398;2023-01-29T11:01:12;102622.09;;;16.97;51.83
55189;BME280;41069;52.192;5.398;2023-01-29T11:03:39;102620.88;;;16.94;51.91
55189;BME280;41069;52.192;5.398;2023-01-29T11:08:51;102609.69;;;16.91;51.95
55189;BME280;41069;52.192;5.398;2023-01-29T11:11:20;102606.50;;;16.89;51.89
55189;BME280;41069;52.192;5.398;2023-01-29T11:13:55;102609.34;;;16.85;52.25
55189;BME280;41069;52.192;5.398;2023-01-29T11:16:29;102593.75;;;16.84;51.88
55189;BME280;41069;52.192;5.398;2023-01-29T11:18:59;102612.50;;;16.84;52.07
55189;BME280;41069;52.192;5.398;2023-01-29T11:21:27;102600.53;;;16.87;52.12
55189;BME280;41069;52.192;5.398;2023-01-29T11:24:10;102604.13;;;16.87;52.09
55189;BME280;41069;52.192;5.398;2023-01-29T11:26:38;102610.13;;;16.89;51.72
55189;BME280;41069;52.192;5.398;2023-01-29T11:32:10;102594.13;;;16.90;51.81
55189;BME280;41069;52.192;5.398;2023-01-29T11:37:41;102594.91;;;16.90;51.93
55189;BME280;41069;52.192;5.398;2023-01-29T11:42:46;102586.09;;;16.95;52.03
55189;BME280;41069;52.192;5.398;2023-01-29T11:47:49;102578.91;;;16.94;51.70
55189;BME280;41069;52.192;5.398;2023-01-29T11:50:22;102578.91;;;16.98;51.49
55189;BME280;41069;52.192;5.398;2023-01-29T11:53:03;102571.72;;;16.97;51.57
55189;BME280;41069;52.192;5.398;2023-01-29T11:55:31;102572.88;;;17.03;51.16
55189;BME280;41069;52.192;5.398;2023-01-29T11:58:20;102570.91;;;16.96;51.76
55189;BME280;41069;52.192;5.398;2023-01-29T12:00:50;102561.31;;;16.97;51.67
55189;BME280;41069;52.192;5.398;2023-01-29T12:03:48;102559.28;;;17.02;51.26
55189;BME280;41069;52.192;5.398;2023-01-29T12:06:44;102554.50;;;16.98;51.45
55189;BME280;41069;52.192;5.398;2023-01-29T12:09:23;102549.31;;;17.01;51.35
55189;BME280;41069;52.192;5.398;2023-01-29T12:11:50;102538.94;;;16.97;51.49
55189;BME280;41069;52.192;5.398;2023-01-29T12:14:27;102538.91;;;17.01;50.98
55189;BME280;41069;52.192;5.398;2023-01-29T12:17:17;102538.09;;;17.04;51.25
55189;BME280;41069;52.192;5.398;2023-01-29T12:19:55;102526.91;;;17.01;51.28
55189;BME280;41069;52.192;5.398;2023-01-29T12:25:15;102514.50;;;17.09;51.02
55189;BME280;41069;52.192;5.398;2023-01-29T12:34:13;102505.25;;;17.15;50.59
55189;BME280;41069;52.192;5.398;2023-01-29T12:37:18;102492.81;;;17.20;50.49
55189;BME280;41069;52.192;5.398;2023-01-29T12:39:36;102487.25;;;17.13;50.51
55189;BME280;41069;52.192;5.398;2023-01-29T12:42:07;102488.44;;;17.15;50.57
55189;BME280;41069;52.192;5.398;2023-01-29T12:44:39;102481.66;;;17.13;50.74
55189;BME280;41069;52.192;5.398;2023-01-29T12:47:30;102478.81;;;17.23;50.63
55189;BME280;41069;52.192;5.398;2023-01-29T12:50:13;102465.59;;;17.24;50.75
55189;BME280;41069;52.192;5.398;2023-01-29T12:52:59;102457.19;;;17.24;50.56
55189;BME280;41069;52.192;5.398;2023-01-29T12:55:40;102448.00;;;17.20;50.62
55189;BME280;41069;52.192;5.398;2023-01-29T12:58:38;102432.41;;;17.22;50.80
55189;BME280;41069;52.192;5.398;2023-01-29T13:01:30;102431.16;;;17.27;50.62
55189;BME280;41069;52.192;5.398;2023-01-29T13:04:08;102420.75;;;17.27;50.24
55189;BME280;41069;52.192;5.398;2023-01-29T13:06:48;102412.81;;;17.22;50.62
55189;BME280;41069;52.192;5.398;2023-01-29T13:09:22;102407.97;;;17.26;50.44
55189;BME280;41069;52.192;5.398;2023-01-29T13:11:58;102391.97;;;17.27;50.41
55189;BME280;41069;52.192;5.398;2023-01-29T13:15:02;102377.94;;;17.34;50.30
55189;BME280;41069;52.192;5.398;2023-01-29T13:17:47;102361.91;;;17.35;50.50
55189;BME280;41069;52.192;5.398;2023-01-29T13:20:20;102364.63;;;17.45;50.81
55189;BME280;41069;52.192;5.398;2023-01-29T13:22:49;102352.16;;;17.50;50.82
55189;BME280;41069;52.192;5.398;2023-01-29T13:25:18;102347.00;;;17.48;51.16
55189;BME280;41069;52.192;5.398;2023-01-29T13:27:46;102349.00;;;17.48;50.87
55189;BME280;41069;52.192;5.398;2023-01-29T13:30:27;102354.94;;;17.53;51.10
55189;BME280;41069;52.192;5.398;2023-01-29T13:32:55;102334.94;;;17.51;51.21
55189;BME280;41069;52.192;5.398;2023-01-29T13:35:25;102334.53;;;17.53;51.27
55189;BME280;41069;52.192;5.398;2023-01-29T13:37:52;102335.38;;;17.50;51.32
55189;BME280;41069;52.192;5.398;2023-01-29T13:40:24;102334.94;;;17.51;50.63
55189;BME280;41069;52.192;5.398;2023-01-29T13:42:52;102333.31;;;17.57;51.00
55189;BME280;41069;52.192;5.398;2023-01-29T13:48:08;102326.41;;;17.66;51.01
55189;BME280;41069;52.192;5.398;2023-01-29T13:50:38;102334.78;;;17.73;51.25
55189;BME280;41069;52.192;5.398;2023-01-29T13:53:08;102332.75;;;17.73;51.66
55189;BME280;41069;52.192;5.398;2023-01-29T13:55:44;102323.97;;;17.71;51.20
55189;BME280;41069;52.192;5.398;2023-01-29T14:01:03;102332.78;;;17.66;51.88
55189;BME280;41069;52.192;5.398;2023-01-29T14:03:39;102324.75;;;17.68;51.72
55189;BME280;41069;52.192;5.398;2023-01-29T14:06:09;102329.56;;;17.68;52.17
55189;BME280;41069;52.192;5.398;2023-01-29T14:13:45;102317.22;;;17.69;52.15
55189;BME280;41069;52.192;5.398;2023-01-29T14:18:52;102305.19;;;17.65;52.05
55189;BME280;41069;52.192;5.398;2023-01-29T14:21:23;102301.56;;;17.68;53.19
55189;BME280;41069;52.192;5.398;2023-01-29T14:23:51;102307.94;;;17.68;52.67
55189;BME280;41069;52.192;5.398;2023-01-29T14:26:55;102302.78;;;17.67;53.00
55189;BME280;41069;52.192;5.398;2023-01-29T14:29:30;102299.22;;;17.63;52.80
55189;BME280;41069;52.192;5.398;2023-01-29T14:32:20;102301.22;;;17.62;52.22
55189;BME280;41069;52.192;5.398;2023-01-29T14:34:58;102298.06;;;17.56;52.46
55189;BME280;41069;52.192;5.398;2023-01-29T14:37:33;102286.50;;;17.54;52.85
55189;BME280;41069;52.192;5.398;2023-01-29T14:40:14;102282.94;;;17.50;52.49
55189;BME280;41069;52.192;5.398;2023-01-29T14:43:02;102280.66;;;17.38;52.40
55189;BME280;41069;52.192;5.398;2023-01-29T14:45:32;102288.66;;;17.40;52.54
55189;BME280;41069;52.192;5.398;2023-01-29T14:48:01;102273.44;;;17.41;52.78
55189;BME280;41069;52.192;5.398;2023-01-29T14:53:21;102285.84;;;17.40;52.09
55189;BME280;41069;52.192;5.398;2023-01-29T14:56:02;102276.94;;;17.07;51.75
55189;BME280;41069;52.192;5.398;2023-01-29T14:58:41;102275.34;;;17.06;52.01
55189;BME280;41069;52.192;5.398;2023-01-29T15:01:39;102252.06;;;17.16;51.48
55189;BME280;41069;52.192;5.398;2023-01-29T15:06:44;102257.88;;;16.32;47.64
55189;BME280;41069;52.192;5.398;2023-01-29T15:12:17;102251.88;;;16.93;50.72
55189;BME280;41069;52.192;5.398;2023-01-29T15:14:58;102246.56;;;17.06;51.31
55189;BME280;41069;52.192;5.398;2023-01-29T15:17:29;102242.44;;;17.21;51.14
55189;BME280;41069;52.192;5.398;2023-01-29T15:19:57;102256.47;;;17.17;51.64
55189;BME280;41069;52.192;5.398;2023-01-29T15:22:23;102247.09;;;15.15;47.16
55189;BME280;41069;52.192;5.398;2023-01-29T15:25:13;102248.13;;;15.89;49.72
55189;BME280;41069;52.192;5.398;2023-01-29T15:27:48;102250.59;;;16.46;49.25